Time;durP1;ratioP1;P1;durP2;ratioP2;P2;SDS_P1;SDS_P2;PMS_P1;PMS_P2;Temp;Humidity;BMP_temperature;BMP_pressure;BME280_temperature;BME280_humidity;BME280_pressure;Samples;Min_cycle;Max_cycle;Signal;HPM_P1;HPM_P2
2021/10/10 00:01:35;;;;;;;908.15;634.42;;;;;;;;;;5009283;28;20068;-76
2021/10/10 00:04:01;;;;;;;908.38;634.60;;;;;;;;;;5005834;28;20092;-74
2021/10/10 00:06:27;;;;;;;909.95;635.38;;;;;;;;;;5005185;28;20029;-75
2021/10/10 00:08:53;;;;;;;915.72;639.78;;;;;;;;;;4993945;28;20398;-75
2021/10/10 00:14:23;;;;;;;909.50;619.67;;;;;;;;;;4997916;28;20072;-75
2021/10/10 00:16:50;;;;;;;909.55;621.08;;;;;;;;;;5001405;28;20048;-75
2021/10/10 00:19:16;;;;;;;913.90;628.75;;;;;;;;;;4997315;28;20026;-75
2021/10/10 00:21:42;;;;;;;916.28;639.25;;;;;;;;;;4999642;28;20034;-75
2021/10/10 00:24:08;;;;;;;917.10;637.55;;;;;;;;;;5001564;28;20419;-75
2021/10/10 00:26:34;;;;;;;913.85;630.72;;;;;;;;;;5005742;28;20401;-75
2021/10/10 00:29:00;;;;;;;915.80;642.30;;;;;;;;;;5008750;28;20096;-75
2021/10/10 00:31:26;;;;;;;915.58;637.10;;;;;;;;;;5007101;28;20105;-76
2021/10/10 00:33:52;;;;;;;915.97;633.90;;;;;;;;;;5004874;28;20337;-75
2021/10/10 00:36:18;;;;;;;919.47;638.05;;;;;;;;;;4996720;28;20022;-75
2021/10/10 00:38:44;;;;;;;914.58;629.30;;;;;;;;;;5004716;28;20488;-76
2021/10/10 00:41:10;;;;;;;915.33;637.58;;;;;;;;;;5001963;28;20022;-76
2021/10/10 00:43:36;;;;;;;917.20;636.83;;;;;;;;;;4997850;28;20026;-75
2021/10/10 00:46:02;;;;;;;919.95;644.28;;;;;;;;;;5002748;28;20540;-75
2021/10/10 00:48:29;;;;;;;921.53;635.80;;;;;;;;;;5009019;28;20033;-75
2021/10/10 00:50:55;;;;;;;913.28;636.05;;;;;;;;;;5009411;28;20072;-78
2021/10/10 00:53:22;;;;;;;909.45;624.42;;;;;;;;;;5001935;28;20061;-76
2021/10/10 00:55:49;;;;;;;912.30;623.58;;;;;;;;;;5004831;28;20057;-75
2021/10/10 00:58:16;;;;;;;912.05;621.47;;;;;;;;;;5000057;28;20463;-77
2021/10/10 01:00:43;;;;;;;919.90;643.63;;;;;;;;;;5004912;28;20026;-75
2021/10/10 01:03:08;;;;;;;911.85;620.63;;;;;;;;;;4998642;28;20387;-76
2021/10/10 01:05:34;;;;;;;915.33;628.70;;;;;;;;;;5004537;28;20536;-75
2021/10/10 01:08:00;;;;;;;913.22;619.72;;;;;;;;;;5004001;28;20030;-75
2021/10/10 01:10:26;;;;;;;913.38;628.50;;;;;;;;;;5006393;28;20509;-75
2021/10/10 01:12:53;;;;;;;913.35;627.40;;;;;;;;;;4999921;28;20474;-76
2021/10/10 01:15:19;;;;;;;916.40;632.13;;;;;;;;;;4995941;28;20044;-76
2021/10/10 01:17:45;;;;;;;912.95;624.75;;;;;;;;;;5003974;28;20030;-75
2021/10/10 01:20:11;;;;;;;914.03;626.45;;;;;;;;;;5004466;28;20026;-76
2021/10/10 01:22:38;;;;;;;909.00;620.42;;;;;;;;;;5002660;28;20021;-76
2021/10/10 01:25:04;;;;;;;910.20;614.17;;;;;;;;;;5002151;28;20030;-75
2021/10/10 01:27:30;;;;;;;910.47;613.83;;;;;;;;;;5006238;28;20061;-76
2021/10/10 01:29:56;;;;;;;907.15;610.92;;;;;;;;;;5007345;28;20041;-76
2021/10/10 01:32:22;;;;;;;906.65;609.72;;;;;;;;;;5001789;28;20026;-76
2021/10/10 01:34:48;;;;;;;911.78;620.63;;;;;;;;;;5000140;28;20021;-76
2021/10/10 01:37:15;;;;;;;909.67;609.92;;;;;;;;;;5001300;28;20034;-76
2021/10/10 01:39:41;;;;;;;909.38;608.97;;;;;;;;;;5012302;28;20374;-75
2021/10/10 01:42:07;;;;;;;912.45;617.88;;;;;;;;;;5004210;28;20022;-76
2021/10/10 01:44:33;;;;;;;906.03;592.35;;;;;;;;;;5003083;28;20434;-77
2021/10/10 01:46:59;;;;;;;906.72;603.25;;;;;;;;;;5002268;28;20037;-75
2021/10/10 01:49:25;;;;;;;902.72;592.47;;;;;;;;;;4999545;28;20242;-76
2021/10/10 01:51:51;;;;;;;904.10;593.95;;;;;;;;;;4997456;28;20555;-76
2021/10/10 01:54:17;;;;;;;903.53;587.88;;;;;;;;;;5007012;28;20025;-76
2021/10/10 01:56:43;;;;;;;903.25;591.92;;;;;;;;;;5005509;28;20038;-76
2021/10/10 01:59:09;;;;;;;907.33;604.67;;;;;;;;;;5000311;28;20497;-76
2021/10/10 02:01:35;;;;;;;903.88;598.28;;;;;;;;;;5004675;28;20029;-76
2021/10/10 02:04:01;;;;;;;902.40;590.20;;;;;;;;;;5005064;28;20490;-76
2021/10/10 02:06:27;;;;;;;903.05;590.88;;;;;;;;;;4998037;28;20381;-76
2021/10/10 02:08:53;;;;;;;903.13;597.40;;;;;;;;;;5004793;28;20041;-76
2021/10/10 02:11:19;;;;;;;903.40;597.38;;;;;;;;;;5004006;28;20494;-76
2021/10/10 02:13:45;;;;;;;906.15;597.58;;;;;;;;;;4997360;28;20124;-76
2021/10/10 02:16:12;;;;;;;906.33;592.53;;;;;;;;;;4994948;28;20034;-76
2021/10/10 02:18:38;;;;;;;902.97;580.10;;;;;;;;;;5001353;28;20053;-76
2021/10/10 02:21:04;;;;;;;904.42;589.17;;;;;;;;;;4990413;28;20504;-76
2021/10/10 02:23:30;;;;;;;903.05;583.80;;;;;;;;;;5000717;28;20109;-75
2021/10/10 02:25:56;;;;;;;905.60;588.03;;;;;;;;;;5020752;28;20128;-76
2021/10/10 02:28:22;;;;;;;907.05;593.25;;;;;;;;;;4996875;28;20212;-76
2021/10/10 02:30:49;;;;;;;899.90;579.15;;;;;;;;;;5004755;28;20041;-76
2021/10/10 02:33:18;;;;;;;901.15;577.85;;;;;;;;;;5003335;28;20112;-76
2021/10/10 02:35:44;;;;;;;901.63;571.33;;;;;;;;;;5002999;28;20034;-75
2021/10/10 02:38:11;;;;;;;900.67;571.80;;;;;;;;;;4997156;28;20026;-76
2021/10/10 02:40:37;;;;;;;907.70;583.00;;;;;;;;;;5005389;28;20287;-78
2021/10/10 02:43:03;;;;;;;891.25;526.85;;;;;;;;;;5003819;28;20121;-78
2021/10/10 02:45:29;;;;;;;899.67;547.55;;;;;;;;;;5005062;28;20124;-78
2021/10/10 02:47:55;;;;;;;892.28;528.45;;;;;;;;;;5004619;28;20056;-78
2021/10/10 02:50:20;;;;;;;887.63;511.45;;;;;;;;;;5001642;28;20034;-78
2021/10/10 02:52:46;;;;;;;896.25;545.78;;;;;;;;;;4997992;28;20089;-78
2021/10/10 02:55:12;;;;;;;888.97;514.30;;;;;;;;;;5011748;28;20125;-78
2021/10/10 02:57:38;;;;;;;889.50;515.38;;;;;;;;;;5009210;28;20027;-78
2021/10/10 03:00:05;;;;;;;884.42;498.80;;;;;;;;;;5013886;28;20025;-78
2021/10/10 03:02:31;;;;;;;883.58;504.35;;;;;;;;;;5004835;28;20466;-78
2021/10/10 03:04:57;;;;;;;895.72;525.75;;;;;;;;;;5004974;28;20085;-78
2021/10/10 03:07:23;;;;;;;877.35;480.50;;;;;;;;;;5008166;28;20030;-76
2021/10/10 03:09:49;;;;;;;876.67;464.98;;;;;;;;;;5003657;28;20026;-78
2021/10/10 03:12:15;;;;;;;880.17;482.77;;;;;;;;;;5008867;28;20057;-78
2021/10/10 03:14:41;;;;;;;874.05;455.40;;;;;;;;;;5008172;28;20516;-79
2021/10/10 03:17:07;;;;;;;872.33;450.02;;;;;;;;;;5002488;28;20083;-78
2021/10/10 03:19:33;;;;;;;870.53;444.23;;;;;;;;;;5008593;28;20026;-78
2021/10/10 03:21:59;;;;;;;871.67;446.67;;;;;;;;;;5002032;28;20390;-78
2021/10/10 03:24:25;;;;;;;846.90;384.55;;;;;;;;;;5003671;28;20340;-78
2021/10/10 03:26:51;;;;;;;843.70;374.50;;;;;;;;;;5005308;28;20034;-78
2021/10/10 03:29:17;;;;;;;846.70;377.45;;;;;;;;;;5007614;28;20038;-78
2021/10/10 03:31:43;;;;;;;849.47;378.45;;;;;;;;;;5006426;28;20413;-78
2021/10/10 03:34:09;;;;;;;824.63;362.27;;;;;;;;;;5008263;28;20045;-78
2021/10/10 03:36:35;;;;;;;830.75;366.48;;;;;;;;;;5008500;28;20393;-78
2021/10/10 03:39:01;;;;;;;832.72;366.15;;;;;;;;;;5007413;28;20026;-78
2021/10/10 03:41:27;;;;;;;831.10;370.13;;;;;;;;;;5002501;28;20049;-78
2021/10/10 03:43:53;;;;;;;829.25;364.42;;;;;;;;;;5004594;28;20025;-78
2021/10/10 03:46:19;;;;;;;826.08;365.98;;;;;;;;;;5001927;28;20079;-78
2021/10/10 03:48:45;;;;;;;820.97;357.33;;;;;;;;;;5003326;28;20033;-78
2021/10/10 03:51:11;;;;;;;826.63;364.30;;;;;;;;;;4999354;28;20041;-78
2021/10/10 03:56:23;;;;;;;831.80;368.17;;;;;;;;;;5002086;28;20128;-78
2021/10/10 03:58:49;;;;;;;832.13;370.60;;;;;;;;;;4997550;28;20150;-77
2021/10/10 04:01:15;;;;;;;829.70;364.85;;;;;;;;;;5004455;28;20037;-78
2021/10/10 04:03:41;;;;;;;828.50;356.95;;;;;;;;;;5006799;28;20096;-78
2021/10/10 04:06:07;;;;;;;825.70;357.65;;;;;;;;;;5004836;28;20406;-78
2021/10/10 04:08:33;;;;;;;830.50;363.27;;;;;;;;;;5007593;28;20117;-78
2021/10/10 04:10:59;;;;;;;833.47;375.90;;;;;;;;;;5003198;28;20066;-78
2021/10/10 04:13:25;;;;;;;830.58;373.67;;;;;;;;;;5007038;28;20021;-78
2021/10/10 04:15:51;;;;;;;840.13;374.65;;;;;;;;;;5007131;28;20096;-78
2021/10/10 04:18:17;;;;;;;829.50;373.48;;;;;;;;;;5002503;28;20223;-77
2021/10/10 04:20:43;;;;;;;837.15;377.35;;;;;;;;;;5002714;28;20088;-77
2021/10/10 04:23:09;;;;;;;832.97;375.05;;;;;;;;;;5004179;28;20105;-78
2021/10/10 04:25:35;;;;;;;832.55;368.52;;;;;;;;;;5000309;28;20030;-78
2021/10/10 04:28:01;;;;;;;832.78;376.48;;;;;;;;;;5003984;28;20037;-78
2021/10/10 04:30:27;;;;;;;832.90;372.45;;;;;;;;;;5003095;28;20038;-77
2021/10/10 04:32:53;;;;;;;835.72;374.83;;;;;;;;;;5005234;28;20030;-78
2021/10/10 04:35:19;;;;;;;835.70;369.35;;;;;;;;;;5006815;28;20428;-78
2021/10/10 04:37:45;;;;;;;834.28;373.90;;;;;;;;;;5006347;28;20422;-78
2021/10/10 04:40:11;;;;;;;837.25;380.65;;;;;;;;;;5002238;28;20466;-78
2021/10/10 04:42:38;;;;;;;835.67;369.33;;;;;;;;;;5001696;28;20022;-78
2021/10/10 04:45:04;;;;;;;838.35;378.27;;;;;;;;;;5002044;28;20525;-78
2021/10/10 04:47:30;;;;;;;835.40;362.23;;;;;;;;;;5005385;28;20510;-78
2021/10/10 04:49:56;;;;;;;838.42;380.00;;;;;;;;;;5003320;28;20018;-78
2021/10/10 04:52:22;;;;;;;842.03;382.83;;;;;;;;;;5003563;28;20080;-78
2021/10/10 04:54:49;;;;;;;835.97;378.13;;;;;;;;;;5003922;28;20030;-78
2021/10/10 04:57:15;;;;;;;836.35;384.98;;;;;;;;;;5003366;28;20473;-78
2021/10/10 04:59:48;;;;;;;837.08;375.05;;;;;;;;;;5023371;28;20112;-78
2021/10/10 05:02:14;;;;;;;835.95;369.02;;;;;;;;;;5004519;28;20026;-77
2021/10/10 05:04:40;;;;;;;837.60;375.88;;;;;;;;;;5013063;28;20030;-77
2021/10/10 05:07:06;;;;;;;836.65;379.65;;;;;;;;;;5005526;28;20069;-78
2021/10/10 05:09:32;;;;;;;840.08;373.52;;;;;;;;;;4999052;28;20033;-78
2021/10/10 05:11:58;;;;;;;837.83;370.02;;;;;;;;;;5004857;28;20057;-78
2021/10/10 05:14:24;;;;;;;834.38;365.55;;;;;;;;;;5002931;28;20042;-78
2021/10/10 05:16:50;;;;;;;836.33;370.00;;;;;;;;;;5002125;28;20030;-78
2021/10/10 05:19:15;;;;;;;838.55;370.52;;;;;;;;;;5016279;28;20033;-78
2021/10/10 05:21:41;;;;;;;837.63;371.67;;;;;;;;;;5001880;28;20034;-78
2021/10/10 05:24:07;;;;;;;834.88;367.13;;;;;;;;;;5006328;28;20030;-77
2021/10/10 05:26:33;;;;;;;836.03;369.88;;;;;;;;;;5000330;28;20030;-77
2021/10/10 05:28:59;;;;;;;839.08;370.58;;;;;;;;;;5006570;28;20501;-78
2021/10/10 05:31:25;;;;;;;838.85;370.88;;;;;;;;;;4994442;28;20061;-77
2021/10/10 05:33:51;;;;;;;841.65;371.45;;;;;;;;;;5005230;28;20054;-77
2021/10/10 05:36:17;;;;;;;843.25;377.10;;;;;;;;;;5005176;28;20497;-78
2021/10/10 05:38:43;;;;;;;837.88;366.85;;;;;;;;;;4999075;28;20289;-78
2021/10/10 05:41:09;;;;;;;837.63;365.52;;;;;;;;;;5006019;28;20117;-78
2021/10/10 05:43:35;;;;;;;836.78;362.70;;;;;;;;;;5002528;28;20025;-78
2021/10/10 05:46:01;;;;;;;840.15;370.00;;;;;;;;;;5004866;28;20396;-77
2021/10/10 05:48:27;;;;;;;842.92;371.50;;;;;;;;;;5005106;28;20436;-77
2021/10/10 05:50:53;;;;;;;838.83;363.13;;;;;;;;;;5001115;28;20065;-78
2021/10/10 05:53:19;;;;;;;838.40;360.08;;;;;;;;;;5004185;28;20041;-78
2021/10/10 05:55:46;;;;;;;839.22;363.13;;;;;;;;;;5004635;28;20030;-77
2021/10/10 05:58:19;;;;;;;837.85;365.63;;;;;;;;;;5004947;28;20037;-77
2021/10/10 06:00:45;;;;;;;840.40;365.50;;;;;;;;;;4998076;28;20304;-78
2021/10/10 06:03:11;;;;;;;841.63;370.40;;;;;;;;;;5005090;28;20500;-77
2021/10/10 06:05:38;;;;;;;839.53;369.23;;;;;;;;;;5005679;28;20409;-78
2021/10/10 06:08:04;;;;;;;832.42;361.23;;;;;;;;;;5003705;28;20034;-78
2021/10/10 06:10:30;;;;;;;838.20;363.77;;;;;;;;;;5001515;28;20037;-78
2021/10/10 06:12:56;;;;;;;842.95;372.60;;;;;;;;;;5005592;28;20474;-78
2021/10/10 06:15:23;;;;;;;840.88;369.92;;;;;;;;;;4999740;28;20045;-78
2021/10/10 06:17:49;;;;;;;836.45;376.38;;;;;;;;;;5003650;28;20034;-77
2021/10/10 06:20:15;;;;;;;839.58;368.92;;;;;;;;;;5000927;28;20064;-77
2021/10/10 06:22:41;;;;;;;841.13;378.80;;;;;;;;;;5002654;28;20084;-78
2021/10/10 06:25:07;;;;;;;838.72;375.58;;;;;;;;;;5003803;28;20885;-78
2021/10/10 06:27:33;;;;;;;841.35;373.25;;;;;;;;;;5001001;28;20442;-77
2021/10/10 06:29:59;;;;;;;839.80;373.95;;;;;;;;;;5002329;28;20034;-77
2021/10/10 06:32:25;;;;;;;836.50;377.92;;;;;;;;;;5011244;28;20022;-79
2021/10/10 06:34:51;;;;;;;835.55;371.60;;;;;;;;;;5001331;28;20368;-78
2021/10/10 06:37:17;;;;;;;841.35;384.23;;;;;;;;;;4994268;28;20034;-77
2021/10/10 06:39:43;;;;;;;838.10;383.75;;;;;;;;;;5011376;28;20061;-77
2021/10/10 06:42:09;;;;;;;833.88;380.02;;;;;;;;;;5005304;28;20044;-77
2021/10/10 06:44:35;;;;;;;838.85;389.25;;;;;;;;;;5006424;28;20060;-78
2021/10/10 06:47:02;;;;;;;847.08;394.90;;;;;;;;;;5007120;28;20069;-78
2021/10/10 06:49:28;;;;;;;847.58;405.17;;;;;;;;;;5005595;28;20033;-78
2021/10/10 06:51:54;;;;;;;846.88;401.52;;;;;;;;;;5003864;28;20042;-77
2021/10/10 06:54:20;;;;;;;844.95;405.58;;;;;;;;;;5007514;28;20076;-77
2021/10/10 06:56:46;;;;;;;853.35;411.65;;;;;;;;;;5006010;28;20497;-78
2021/10/10 06:59:12;;;;;;;852.75;419.58;;;;;;;;;;5006979;28;20426;-78
2021/10/10 07:01:39;;;;;;;846.72;415.50;;;;;;;;;;5009542;28;20033;-78
2021/10/10 07:04:05;;;;;;;849.63;419.85;;;;;;;;;;5006644;28;20045;-78
2021/10/10 07:06:31;;;;;;;850.28;427.77;;;;;;;;;;5006260;28;20034;-77
2021/10/10 07:08:57;;;;;;;854.13;431.00;;;;;;;;;;5006260;28;20084;-78
2021/10/10 07:11:23;;;;;;;851.75;436.80;;;;;;;;;;5005465;28;20046;-77
2021/10/10 07:13:49;;;;;;;849.42;435.58;;;;;;;;;;5005731;28;20030;-78
2021/10/10 07:16:15;;;;;;;849.95;437.50;;;;;;;;;;5005241;28;20041;-77
2021/10/10 07:18:48;;;;;;;852.45;441.73;;;;;;;;;;5005928;28;20378;-77
2021/10/10 07:26:23;;;;;;;850.67;438.20;;;;;;;;;;5007016;28;20034;-78
2021/10/10 07:28:49;;;;;;;857.13;455.52;;;;;;;;;;5020279;28;20461;-77
2021/10/10 07:31:15;;;;;;;855.10;449.77;;;;;;;;;;5005395;28;20030;-77
2021/10/10 07:33:41;;;;;;;864.45;467.35;;;;;;;;;;5006534;28;20181;-77
2021/10/10 07:36:07;;;;;;;856.25;455.15;;;;;;;;;;5008953;28;20029;-77
2021/10/10 07:38:33;;;;;;;855.78;466.73;;;;;;;;;;5005092;28;20026;-78
2021/10/10 07:41:03;;;;;;;856.60;459.50;;;;;;;;;;5006269;28;20481;-78
2021/10/10 07:43:30;;;;;;;859.45;460.35;;;;;;;;;;5009609;28;20026;-77
2021/10/10 07:46:05;;;;;;;861.83;468.70;;;;;;;;;;5007230;28;20091;-78
2021/10/10 07:48:31;;;;;;;867.72;483.75;;;;;;;;;;5008559;28;20018;-78
2021/10/10 07:50:57;;;;;;;867.88;496.10;;;;;;;;;;5004341;28;20351;-77
2021/10/10 07:53:23;;;;;;;869.20;500.48;;;;;;;;;;5008054;28;20148;-77
2021/10/10 07:55:49;;;;;;;869.45;503.52;;;;;;;;;;5011342;28;20030;-77
2021/10/10 07:58:15;;;;;;;866.30;503.60;;;;;;;;;;5009483;28;20029;-78
2021/10/10 08:00:41;;;;;;;869.53;509.88;;;;;;;;;;5007702;28;20040;-78
2021/10/10 08:03:07;;;;;;;871.63;524.67;;;;;;;;;;5009218;28;20035;-77
2021/10/10 08:05:40;;;;;;;871.03;524.33;;;;;;;;;;5010415;28;20552;-77
2021/10/10 08:08:07;;;;;;;886.90;549.47;;;;;;;;;;5010593;28;20088;-77
2021/10/10 08:10:33;;;;;;;871.15;514.67;;;;;;;;;;5007251;28;20080;-77
2021/10/10 08:12:59;;;;;;;868.13;515.33;;;;;;;;;;5009008;28;20038;-77
2021/10/10 08:15:25;;;;;;;877.60;545.38;;;;;;;;;;5008195;28;20026;-77
2021/10/10 08:17:51;;;;;;;872.00;525.63;;;;;;;;;;5007832;28;20076;-77
2021/10/10 08:20:17;;;;;;;867.47;524.00;;;;;;;;;;5008024;28;20044;-77
2021/10/10 08:22:45;;;;;;;880.72;553.50;;;;;;;;;;5007611;28;20036;-77
2021/10/10 08:25:12;;;;;;;866.40;525.25;;;;;;;;;;5006415;28;20036;-77
2021/10/10 08:27:39;;;;;;;884.60;561.08;;;;;;;;;;5001017;28;20532;-77
2021/10/10 08:30:06;;;;;;;879.30;557.25;;;;;;;;;;5007482;28;20076;-77
2021/10/10 08:32:32;;;;;;;891.55;599.13;;;;;;;;;;5001930;28;20037;-77
2021/10/10 08:34:58;;;;;;;891.28;583.55;;;;;;;;;;5007785;28;20026;-77
2021/10/10 08:37:24;;;;;;;878.83;560.45;;;;;;;;;;5009757;28;20421;-77
2021/10/10 08:39:50;;;;;;;876.00;566.47;;;;;;;;;;5006904;28;20117;-77
2021/10/10 08:42:18;;;;;;;877.53;579.90;;;;;;;;;;5006210;28;20033;-77
2021/10/10 08:44:47;;;;;;;887.63;614.45;;;;;;;;;;5002021;28;20428;-77
2021/10/10 08:47:15;;;;;;;888.97;632.38;;;;;;;;;;5008342;28;20037;-77
2021/10/10 08:49:41;;;;;;;889.50;645.55;;;;;;;;;;5006975;28;20033;-77
2021/10/10 08:52:07;;;;;;;896.30;668.22;;;;;;;;;;5008803;28;20058;-77
2021/10/10 08:54:33;;;;;;;889.15;639.88;;;;;;;;;;5005844;28;20038;-77
2021/10/10 08:57:00;;;;;;;887.67;633.20;;;;;;;;;;5004727;28;20128;-77
2021/10/10 08:59:27;;;;;;;891.20;646.85;;;;;;;;;;5007508;28;20034;-77
2021/10/10 09:01:56;;;;;;;894.35;647.72;;;;;;;;;;5007516;28;20410;-76
2021/10/10 09:04:22;;;;;;;904.47;689.85;;;;;;;;;;5005834;28;20022;-77
2021/10/10 09:06:52;;;;;;;903.20;678.00;;;;;;;;;;5007398;28;20625;-77
2021/10/10 09:09:31;;;;;;;901.85;673.45;;;;;;;;;;5007311;28;20030;-77
2021/10/10 09:12:03;;;;;;;898.10;667.30;;;;;;;;;;5008120;28;20030;-76
2021/10/10 09:14:30;;;;;;;898.70;668.88;;;;;;;;;;4996089;28;20030;-77
2021/10/10 09:17:09;;;;;;;904.58;699.17;;;;;;;;;;5005119;28;20026;-77
2021/10/10 09:19:35;;;;;;;904.75;697.28;;;;;;;;;;5004955;28;20054;-77
2021/10/10 09:22:02;;;;;;;906.80;709.28;;;;;;;;;;5005716;28;20076;-77
2021/10/10 09:24:28;;;;;;;906.78;712.60;;;;;;;;;;5005937;28;20532;-77
2021/10/10 09:26:55;;;;;;;906.65;706.08;;;;;;;;;;5007800;28;20034;-78
2021/10/10 09:29:31;;;;;;;916.92;713.85;;;;;;;;;;5007976;28;20104;-76
2021/10/10 09:32:08;;;;;;;914.72;740.17;;;;;;;;;;5006011;28;20033;-76
2021/10/10 09:34:35;;;;;;;911.92;725.40;;;;;;;;;;5006853;28;20034;-76
2021/10/10 09:37:23;;;;;;;900.45;683.50;;;;;;;;;;5006128;28;20557;-76
2021/10/10 09:39:57;;;;;;;901.50;685.88;;;;;;;;;;5007772;28;20041;-77
2021/10/10 09:42:36;;;;;;;904.97;706.22;;;;;;;;;;5006181;28;20026;-76
2021/10/10 09:45:14;;;;;;;902.88;688.72;;;;;;;;;;5006505;28;20469;-77
2021/10/10 09:47:51;;;;;;;902.97;691.47;;;;;;;;;;5006072;28;20021;-77
2021/10/10 09:50:17;;;;;;;901.85;692.83;;;;;;;;;;5006737;28;20077;-76
2021/10/10 09:52:43;;;;;;;900.90;693.25;;;;;;;;;;5005703;28;20033;-77
2021/10/10 09:55:11;;;;;;;909.03;715.67;;;;;;;;;;5009355;28;20502;-76
2021/10/10 09:57:45;;;;;;;903.47;695.40;;;;;;;;;;5006005;28;20029;-76
2021/10/10 10:00:19;;;;;;;914.90;740.92;;;;;;;;;;4999066;28;20040;-77
2021/10/10 10:02:46;;;;;;;906.28;706.75;;;;;;;;;;5006938;28;20028;-76
2021/10/10 10:05:42;;;;;;;908.33;705.70;;;;;;;;;;5005499;28;20076;-77
2021/10/10 10:08:08;;;;;;;903.90;687.03;;;;;;;;;;4986102;28;20528;-76
2021/10/10 10:10:34;;;;;;;919.58;753.35;;;;;;;;;;5006513;28;20027;-77
2021/10/10 10:13:01;;;;;;;907.65;722.67;;;;;;;;;;5005793;28;20034;-76
2021/10/10 10:15:28;;;;;;;908.70;726.00;;;;;;;;;;5005874;28;20037;-76
2021/10/10 10:17:55;;;;;;;913.72;746.80;;;;;;;;;;5006451;28;20492;-75
2021/10/10 10:20:23;;;;;;;896.08;696.53;;;;;;;;;;5006897;28;20036;-75
2021/10/10 10:22:50;;;;;;;901.67;705.35;;;;;;;;;;5002919;28;20478;-75
2021/10/10 10:25:16;;;;;;;901.10;695.50;;;;;;;;;;5006801;28;20095;-76
2021/10/10 10:27:42;;;;;;;899.88;698.92;;;;;;;;;;5008243;28;20029;-75
2021/10/10 10:30:09;;;;;;;897.95;698.78;;;;;;;;;;5006809;28;20034;-76
2021/10/10 10:32:36;;;;;;;897.72;692.90;;;;;;;;;;5005241;28;20037;-75
2021/10/10 10:35:12;;;;;;;902.97;727.80;;;;;;;;;;5005383;28;20041;-76
2021/10/10 10:37:44;;;;;;;894.75;690.15;;;;;;;;;;5005292;28;20037;-76
2021/10/10 10:40:17;;;;;;;901.28;719.63;;;;;;;;;;5005104;28;20044;-75
2021/10/10 10:42:44;;;;;;;900.05;715.85;;;;;;;;;;5006811;28;20316;-75
2021/10/10 10:45:19;;;;;;;909.88;728.63;;;;;;;;;;5005915;28;20072;-75
2021/10/10 10:47:46;;;;;;;921.35;716.63;;;;;;;;;;5006444;28;20414;-75
2021/10/10 10:50:15;;;;;;;904.00;717.75;;;;;;;;;;5005302;28;20037;-76
2021/10/10 10:52:42;;;;;;;898.28;707.15;;;;;;;;;;5002508;28;20033;-76
2021/10/10 10:55:19;;;;;;;899.22;715.55;;;;;;;;;;5006690;28;20108;-75
2021/10/10 10:57:55;;;;;;;907.70;735.38;;;;;;;;;;5008303;28;20509;-75
2021/10/10 11:00:25;;;;;;;904.83;739.80;;;;;;;;;;5011522;28;20057;-76
2021/10/10 11:02:51;;;;;;;;;;;;;;;;;;5006086;28;20490;-75
2021/10/10 11:05:33;;;;;;;906.95;737.50;;;;;;;;;;5018210;28;19910;-75
2021/10/10 11:08:05;;;;;;;908.30;763.45;;;;;;;;;;5004046;28;20084;-77
2021/10/10 11:10:31;;;;;;;913.20;791.13;;;;;;;;;;4999861;28;20022;-76
2021/10/10 11:13:07;;;;;;;900.45;742.42;;;;;;;;;;5010357;28;20026;-75
2021/10/10 11:15:59;;;;;;;908.95;772.20;;;;;;;;;;5019010;28;20170;-76
2021/10/10 11:18:28;;;;;;;909.90;770.92;;;;;;;;;;5008500;28;20033;-73
2021/10/10 11:21:02;;;;;;;910.75;775.67;;;;;;;;;;5009619;28;20026;-75
2021/10/10 11:23:28;;;;;;;917.92;776.90;;;;;;;;;;5014461;28;20390;-75
2021/10/10 11:25:56;;;;;;;907.13;773.42;;;;;;;;;;5011921;28;20041;-75
2021/10/10 11:28:37;;;;;;;905.10;766.03;;;;;;;;;;5011196;28;20059;-75
2021/10/10 11:31:10;;;;;;;910.22;771.20;;;;;;;;;;5006124;28;20032;-76
2021/10/10 11:33:44;;;;;;;918.90;798.97;;;;;;;;;;5022712;28;20022;-75
2021/10/10 11:36:11;;;;;;;890.13;706.67;;;;;;;;;;5034843;28;20033;-76
2021/10/10 11:38:51;;;;;;;916.78;804.58;;;;;;;;;;5010597;28;20104;-76
2021/10/10 11:41:38;;;;;;;913.30;788.85;;;;;;;;;;5014018;28;20018;-75
2021/10/10 11:44:05;;;;;;;908.72;776.25;;;;;;;;;;5008666;28;20107;-75
2021/10/10 11:46:59;;;;;;;925.20;821.72;;;;;;;;;;5009460;28;20030;-76
2021/10/10 11:49:43;;;;;;;921.83;816.85;;;;;;;;;;5007802;28;20044;-76
2021/10/10 11:52:22;;;;;;;909.42;790.15;;;;;;;;;;5041273;28;20030;-75
2021/10/10 11:54:56;;;;;;;929.10;827.05;;;;;;;;;;5011525;28;20116;-76
2021/10/10 11:57:22;;;;;;;913.60;798.55;;;;;;;;;;5012635;28;20984;-76
2021/10/10 11:59:52;;;;;;;914.97;785.63;;;;;;;;;;5014670;28;20378;-75
2021/10/10 12:02:18;;;;;;;930.75;828.17;;;;;;;;;;5014587;28;20478;-76
2021/10/10 12:04:45;;;;;;;937.85;835.15;;;;;;;;;;5014446;28;20022;-75
2021/10/10 12:07:11;;;;;;;946.03;843.05;;;;;;;;;;5012663;28;20025;-75
2021/10/10 12:09:50;;;;;;;926.13;824.13;;;;;;;;;;5021966;28;20041;-75
2021/10/10 12:12:17;;;;;;;957.45;854.53;;;;;;;;;;5012306;28;20046;-76
2021/10/10 12:14:44;;;;;;;961.72;858.03;;;;;;;;;;5012279;28;20037;-76
2021/10/10 12:17:10;;;;;;;962.88;860.20;;;;;;;;;;5011281;28;20391;-75
2021/10/10 12:19:43;;;;;;;946.13;844.10;;;;;;;;;;5010781;28;20609;-74
2021/10/10 12:22:09;;;;;;;933.40;831.40;;;;;;;;;;5013173;28;20029;-75
2021/10/10 12:24:46;;;;;;;936.95;835.55;;;;;;;;;;5012903;28;20674;-75
2021/10/10 12:27:12;;;;;;;965.58;862.90;;;;;;;;;;5016155;28;20025;-76
2021/10/10 12:29:44;;;;;;;971.20;868.22;;;;;;;;;;5007509;28;20133;-75
2021/10/10 12:32:17;;;;;;;972.65;869.30;;;;;;;;;;5012656;28;20728;-75
2021/10/10 12:34:43;;;;;;;976.28;872.97;;;;;;;;;;5012837;28;20034;-75
2021/10/10 12:37:20;;;;;;;993.83;889.65;;;;;;;;;;5010256;28;20026;-75
2021/10/10 12:39:46;;;;;;;1010.47;905.97;;;;;;;;;;5007620;28;20025;-76
2021/10/10 12:42:13;;;;;;;982.80;879.25;;;;;;;;;;5010015;28;20490;-75
2021/10/10 12:44:39;;;;;;;1013.25;908.03;;;;;;;;;;5007111;28;20037;-75
2021/10/10 12:47:06;;;;;;;996.75;892.50;;;;;;;;;;5007492;28;20030;-74
2021/10/10 12:49:36;;;;;;;990.38;886.20;;;;;;;;;;5004044;28;20030;-76
2021/10/10 12:52:08;;;;;;;965.45;862.50;;;;;;;;;;5005081;28;20120;-75
2021/10/10 12:54:37;;;;;;;974.72;871.47;;;;;;;;;;5009380;28;20386;-76
2021/10/10 12:57:17;;;;;;;1033.68;927.10;;;;;;;;;;5032942;28;20026;-76
2021/10/10 12:59:53;;;;;;;961.85;858.78;;;;;;;;;;5011162;28;20029;-76
2021/10/10 13:02:19;;;;;;;988.75;884.85;;;;;;;;;;5010310;28;20490;-75
2021/10/10 13:04:45;;;;;;;1006.20;901.83;;;;;;;;;;5012142;28;20101;-77
2021/10/10 13:07:15;;;;;;;1008.67;903.53;;;;;;;;;;5013290;28;20082;-76
2021/10/10 13:09:41;;;;;;;1025.47;920.15;;;;;;;;;;5011989;28;20729;-76
2021/10/10 13:12:07;;;;;;;1032.65;927.28;;;;;;;;;;5011711;28;20367;-76
2021/10/10 13:14:33;;;;;;;1033.30;927.53;;;;;;;;;;5012976;28;20160;-75
2021/10/10 13:16:59;;;;;;;1037.75;931.72;;;;;;;;;;5013730;28;20040;-75
2021/10/10 13:19:26;;;;;;;993.22;889.50;;;;;;;;;;5008777;28;20109;-76
2021/10/10 13:21:52;;;;;;;1025.22;920.17;;;;;;;;;;5010461;28;20035;-75
2021/10/10 13:24:19;;;;;;;1031.65;926.38;;;;;;;;;;5004294;28;20105;-76
2021/10/10 13:26:45;;;;;;;1031.18;925.50;;;;;;;;;;5006637;28;20096;-76
2021/10/10 13:29:14;;;;;;;1032.65;926.28;;;;;;;;;;5003278;28;20034;-76
2021/10/10 13:31:40;;;;;;;1000.67;896.22;;;;;;;;;;5005731;28;20055;-76
2021/10/10 13:34:06;;;;;;;976.35;872.88;;;;;;;;;;5011240;28;20037;-75
2021/10/10 13:36:33;;;;;;;983.65;880.10;;;;;;;;;;5008252;28;20052;-77
2021/10/10 13:38:59;;;;;;;1013.22;908.42;;;;;;;;;;5005569;28;20380;-76
2021/10/10 13:41:26;;;;;;;1001.17;897.05;;;;;;;;;;5006746;28;20030;-77
2021/10/10 13:43:52;;;;;;;1013.65;908.85;;;;;;;;;;5007019;28;20075;-76
2021/10/10 13:46:18;;;;;;;997.53;893.33;;;;;;;;;;5006080;28;20030;-76
2021/10/10 13:48:44;;;;;;;1010.35;905.35;;;;;;;;;;5006350;28;20711;-77
2021/10/10 13:51:10;;;;;;;998.50;894.60;;;;;;;;;;5006446;28;20025;-76
2021/10/10 13:53:36;;;;;;;1010.78;906.25;;;;;;;;;;5006404;28;20380;-76
2021/10/10 13:56:03;;;;;;;1025.97;920.53;;;;;;;;;;5005301;28;20604;-76
2021/10/10 13:58:29;;;;;;;997.00;892.17;;;;;;;;;;5006056;28;20030;-77
2021/10/10 14:00:55;;;;;;;1033.63;928.05;;;;;;;;;;5006893;28;20022;-75
2021/10/10 14:03:22;;;;;;;1001.58;897.25;;;;;;;;;;5006395;28;20023;-76
2021/10/10 14:05:49;;;;;;;1012.45;907.75;;;;;;;;;;5006652;28;20022;-76